createdAt,value
2023-06-20T00:00:20.065Z,18.63
2023-06-20T00:01:46.449Z,19.83
2023-06-20T00:02:29.216Z,21.17
2023-06-20T00:03:13.330Z,20.63
2023-06-20T00:03:56.144Z,20.63
2023-06-20T00:04:39.883Z,22.00
2023-06-20T00:05:24.578Z,19.70
2023-06-20T00:06:09.051Z,21.10
2023-06-20T00:06:51.883Z,21.42
2023-06-20T00:07:35.038Z,20.05
2023-06-20T00:08:18.817Z,19.70
2023-06-20T00:09:01.526Z,23.05
2023-06-20T00:09:44.241Z,20.77
2023-06-20T00:10:28.046Z,21.70
2023-06-20T00:11:10.839Z,20.83
2023-06-20T00:11:53.684Z,22.50
2023-06-20T00:12:37.460Z,22.23
2023-06-20T00:13:20.206Z,21.85
2023-06-20T00:14:03.974Z,20.10
2023-06-20T00:14:46.679Z,22.42
2023-06-20T00:15:29.739Z,22.92
2023-06-20T00:16:13.840Z,20.08
2023-06-20T00:16:59.997Z,22.23
2023-06-20T00:17:43.838Z,19.25
2023-06-20T00:18:26.887Z,18.90
2023-06-20T00:19:10.662Z,19.80
2023-06-20T00:19:53.495Z,21.50
2023-06-20T00:20:38.766Z,18.63
2023-06-20T00:21:22.107Z,21.08
2023-06-20T00:22:05.173Z,21.45
2023-06-20T00:22:51.948Z,20.65
2023-06-20T00:23:34.709Z,21.10
2023-06-20T00:24:18.468Z,22.70
2023-06-20T00:25:01.193Z,20.02
2023-06-20T00:25:43.904Z,20.70
2023-06-20T00:26:28.098Z,21.80
2023-06-20T00:27:10.862Z,21.98
2023-06-20T00:27:53.566Z,21.17
2023-06-20T00:28:37.268Z,21.30
2023-06-20T00:29:20.011Z,20.48
2023-06-20T00:30:03.233Z,22.05
2023-06-20T00:30:47.886Z,19.23
2023-06-20T00:31:30.917Z,20.60
2023-06-20T00:32:14.615Z,19.35
2023-06-20T00:32:59.930Z,20.20
2023-06-20T00:33:42.920Z,21.23
2023-06-20T00:34:26.760Z,20.83
2023-06-20T00:35:10.268Z,19.05
2023-06-20T00:35:56.991Z,21.88
2023-06-20T00:36:40.341Z,20.00
2023-06-20T00:37:23.293Z,22.38
2023-06-20T00:38:07.894Z,22.33
2023-06-20T00:38:50.703Z,21.80
2023-06-20T00:39:33.445Z,21.77
2023-06-20T00:40:17.717Z,22.95
2023-06-20T00:41:01.601Z,23.13
2023-06-20T00:41:44.336Z,20.65
2023-06-20T00:42:28.205Z,22.77
2023-06-20T00:43:10.981Z,21.08
2023-06-20T00:43:54.748Z,24.00
2023-06-20T00:44:37.475Z,23.08
2023-06-20T00:45:29.919Z,23.13
2023-06-20T00:46:13.972Z,20.40
2023-06-20T00:46:56.749Z,23.17
2023-06-20T00:47:39.501Z,20.95
2023-06-20T00:48:23.578Z,21.38
2023-06-20T00:49:07.623Z,21.85
2023-06-20T00:49:51.905Z,23.38
2023-06-20T00:50:36.658Z,23.17
2023-06-20T00:51:22.918Z,22.05
2023-06-20T00:52:07.115Z,20.70
2023-06-20T00:52:51.836Z,20.77
2023-06-20T00:53:34.522Z,20.70
2023-06-20T00:54:17.284Z,22.25
2023-06-20T00:55:01.307Z,21.60
2023-06-20T00:55:44.039Z,21.00
2023-06-20T00:56:26.942Z,22.80
2023-06-20T00:57:10.648Z,22.95
2023-06-20T00:57:55.431Z,22.92
2023-06-20T00:58:39.373Z,23.05
2023-06-20T00:59:22.219Z,21.38
2023-06-20T01:00:09.637Z,23.33
2023-06-20T01:00:53.575Z,22.67
2023-06-20T01:01:39.042Z,23.65
2023-06-20T01:02:22.944Z,20.92
2023-06-20T01:03:09.340Z,22.35
2023-06-20T01:03:54.572Z,22.20
2023-06-20T01:04:37.473Z,22.50
2023-06-20T01:05:28.271Z,20.75
2023-06-20T01:06:27.904Z,21.15
2023-06-20T01:07:18.365Z,22.50
2023-06-20T01:08:14.772Z,21.77
2023-06-20T01:09:06.941Z,21.63
2023-06-20T01:10:53.199Z,22.05
2023-06-20T01:11:47.781Z,21.77
2023-06-20T01:12:37.397Z,21.60
2023-06-20T01:13:34.952Z,23.00
2023-06-20T01:14:26.132Z,23.23
2023-06-20T01:15:17.944Z,22.20
2023-06-20T01:16:11.484Z,23.92
2023-06-20T01:17:02.888Z,22.02
2023-06-20T01:17:52.801Z,20.73
2023-06-20T01:18:48.089Z,22.50
2023-06-20T01:19:55.219Z,20.38
2023-06-20T01:20:45.377Z,20.80
2023-06-20T01:21:35.671Z,21.83
2023-06-20T01:22:50.691Z,21.17
2023-06-20T01:23:43.521Z,20.70
2023-06-20T01:24:35.735Z,21.77
2023-06-20T01:26:14.207Z,21.35
2023-06-20T01:27:05.185Z,22.67
2023-06-20T01:27:58.284Z,22.33
2023-06-20T01:28:47.340Z,22.42
2023-06-20T01:29:37.921Z,22.25
2023-06-20T01:30:27.899Z,22.48
2023-06-20T01:31:13.993Z,23.33
2023-06-20T01:32:01.921Z,22.70
2023-06-20T01:32:48.883Z,21.90
2023-06-20T01:33:40.688Z,22.58
2023-06-20T01:34:29.475Z,22.08
2023-06-20T01:35:17.993Z,22.90
2023-06-20T01:36:03.968Z,21.40
2023-06-20T01:36:55.304Z,23.15
2023-06-20T01:37:41.371Z,23.15
2023-06-20T01:38:31.703Z,23.88
2023-06-20T01:39:27.334Z,21.15
2023-06-20T01:40:14.640Z,21.55
2023-06-20T01:40:58.289Z,22.40
2023-06-20T01:41:44.600Z,21.88
2023-06-20T01:42:30.481Z,23.45
2023-06-20T01:43:15.481Z,23.02
2023-06-20T01:44:00.400Z,24.15
2023-06-20T01:44:46.222Z,22.25
2023-06-20T01:45:30.836Z,21.88
2023-06-20T01:46:17.483Z,22.95
2023-06-20T01:47:03.029Z,23.52
2023-06-20T01:47:48.623Z,22.52
2023-06-20T01:48:35.308Z,22.67
2023-06-20T01:49:19.075Z,24.10
2023-06-20T01:50:03.912Z,21.33
2023-06-20T01:50:49.837Z,22.98
2023-06-20T01:51:34.376Z,22.75
2023-06-20T01:52:25.388Z,23.48
2023-06-20T01:53:10.796Z,23.83
2023-06-20T01:53:56.360Z,22.98
2023-06-20T01:54:40.842Z,23.92
2023-06-20T01:55:24.721Z,22.55
2023-06-20T01:56:09.896Z,23.30
2023-06-20T01:56:54.101Z,22.90
2023-06-20T01:57:40.045Z,21.23
2023-06-20T01:58:24.187Z,23.35
2023-06-20T01:59:09.701Z,22.65
2023-06-20T01:59:52.984Z,22.75
2023-06-20T02:00:37.320Z,22.55
2023-06-20T02:01:21.954Z,23.20
2023-06-20T02:02:05.922Z,22.95
2023-06-20T02:02:50.369Z,22.83
2023-06-20T02:03:35.704Z,23.80
2023-06-20T02:04:19.934Z,23.63
2023-06-20T02:05:04.323Z,23.05
2023-06-20T02:05:50.801Z,22.08
2023-06-20T02:06:35.394Z,22.67
2023-06-20T02:07:19.596Z,22.42
2023-06-20T02:08:05.011Z,21.10
2023-06-20T02:08:48.547Z,22.67
2023-06-20T02:09:34.944Z,22.27
2023-06-20T02:10:18.776Z,22.45
2023-06-20T02:11:02.410Z,23.05
2023-06-20T02:11:46.733Z,24.08
2023-06-20T02:12:30.227Z,22.25
2023-06-20T02:13:14.292Z,22.27
2023-06-20T02:14:00.596Z,23.60
2023-06-20T02:14:43.584Z,20.50
2023-06-20T02:15:28.226Z,23.50
2023-06-20T02:16:13.853Z,23.38
2023-06-20T02:17:01.805Z,24.75
2023-06-20T02:17:47.180Z,24.30
2023-06-20T02:18:33.083Z,22.38
2023-06-20T02:19:15.942Z,22.30
2023-06-20T02:19:58.732Z,21.83
2023-06-20T02:20:43.428Z,23.42
2023-06-20T02:21:31.973Z,22.90
2023-06-20T02:22:16.959Z,23.70
2023-06-20T02:23:02.610Z,24.35
2023-06-20T02:23:51.004Z,24.25
2023-06-20T02:24:37.436Z,23.63
2023-06-20T02:25:24.745Z,22.92
2023-06-20T02:26:12.966Z,23.23
2023-06-20T02:26:58.813Z,20.58
2023-06-20T02:27:43.512Z,23.92
2023-06-20T02:28:30.676Z,21.75
2023-06-20T02:29:15.409Z,23.65
2023-06-20T02:30:01.806Z,20.23
2023-06-20T02:30:46.068Z,22.35
2023-06-20T02:31:32.613Z,22.98
2023-06-20T02:32:17.172Z,23.92
2023-06-20T02:33:06.247Z,23.52
2023-06-20T02:33:53.053Z,23.90
2023-06-20T02:34:38.210Z,23.88
2023-06-20T02:35:23.387Z,25.45
2023-06-20T02:36:09.322Z,24.13
2023-06-20T02:37:39.836Z,22.13
2023-06-20T02:38:23.627Z,22.83
2023-06-20T02:39:07.420Z,23.27
2023-06-20T02:39:52.280Z,23.88
2023-06-20T02:40:37.959Z,22.52
2023-06-20T02:41:22.126Z,23.77
2023-06-20T02:42:06.010Z,21.88
2023-06-20T02:42:48.690Z,22.15
2023-06-20T02:43:33.329Z,23.60
2023-06-20T02:44:16.140Z,21.30
2023-06-20T02:44:59.036Z,22.83
2023-06-20T02:45:42.845Z,21.10
2023-06-20T02:46:34.658Z,21.70
2023-06-20T02:47:34.365Z,22.23
2023-06-20T02:48:30.840Z,23.00
2023-06-20T02:49:22.794Z,21.23
2023-06-20T02:50:17.984Z,22.40
2023-06-20T02:51:10.011Z,22.25
2023-06-20T02:52:05.177Z,21.88
2023-06-20T02:52:51.442Z,24.63
2023-06-20T02:53:44.693Z,22.05
2023-06-20T02:54:38.095Z,21.35
2023-06-20T02:55:31.988Z,22.60
2023-06-20T02:56:18.508Z,21.48
2023-06-20T02:57:06.871Z,23.77
2023-06-20T02:57:57.145Z,23.33
2023-06-20T02:58:53.429Z,22.73
2023-06-20T02:59:40.110Z,21.52
2023-06-20T03:00:24.942Z,20.92
2023-06-20T03:01:09.261Z,23.10
2023-06-20T03:01:58.414Z,23.05
2023-06-20T03:02:47.631Z,22.60
2023-06-20T03:03:37.866Z,22.48
2023-06-20T03:04:21.801Z,23.25
2023-06-20T03:05:08.929Z,23.30
2023-06-20T03:05:58.057Z,22.58
2023-06-20T03:06:43.862Z,21.23
2023-06-20T03:08:12.489Z,24.02
2023-06-20T03:08:59.283Z,22.73
2023-06-20T03:09:43.517Z,22.88
2023-06-20T03:10:30.040Z,23.77
2023-06-20T03:11:13.170Z,21.58
2023-06-20T03:11:57.053Z,23.08
2023-06-20T03:12:40.398Z,22.88
2023-06-20T03:13:24.031Z,23.17
2023-06-20T03:14:13.818Z,23.63
2023-06-20T03:14:56.577Z,22.95
2023-06-20T03:15:39.577Z,24.30
2023-06-20T03:16:27.570Z,24.13
2023-06-20T03:17:10.600Z,24.58
2023-06-20T03:17:53.390Z,24.92
2023-06-20T03:18:37.276Z,23.02
2023-06-20T03:19:20.011Z,23.98
2023-06-20T03:20:04.343Z,22.33
2023-06-20T03:20:56.507Z,22.95
2023-06-20T03:21:40.341Z,21.85
2023-06-20T03:22:24.067Z,22.60
2023-06-20T03:23:06.767Z,24.13
2023-06-20T03:23:50.492Z,22.48
2023-06-20T03:24:33.347Z,22.15
2023-06-20T03:25:16.448Z,23.55
2023-06-20T03:26:05.573Z,21.10
2023-06-20T03:26:48.769Z,23.88
2023-06-20T03:27:31.464Z,23.02
2023-06-20T03:28:15.228Z,24.10
2023-06-20T03:28:57.938Z,21.63
2023-06-20T03:29:41.660Z,23.00
2023-06-20T03:30:24.714Z,23.23
2023-06-20T03:31:07.809Z,21.83
2023-06-20T03:31:51.501Z,23.38
2023-06-20T03:32:34.264Z,23.30
2023-06-20T03:33:17.977Z,23.83
2023-06-20T03:34:00.751Z,24.30
2023-06-20T03:34:43.485Z,22.73
2023-06-20T03:35:27.586Z,24.33
2023-06-20T03:36:12.126Z,22.80
2023-06-20T03:36:54.831Z,25.15
2023-06-20T03:37:37.611Z,23.42
2023-06-20T03:38:21.284Z,23.83
2023-06-20T03:39:04.060Z,23.17
2023-06-20T03:39:47.816Z,22.45
2023-06-20T03:40:30.583Z,24.25
2023-06-20T03:41:16.508Z,23.85
2023-06-20T03:41:59.215Z,23.58
2023-06-20T03:42:43.036Z,24.33
2023-06-20T03:43:25.748Z,24.10
2023-06-20T03:44:09.491Z,23.83
2023-06-20T03:44:52.286Z,22.77
2023-06-20T03:45:36.043Z,25.55
2023-06-20T03:46:19.915Z,23.40
2023-06-20T03:47:04.070Z,26.35
2023-06-20T03:47:46.854Z,23.23
2023-06-20T03:48:29.678Z,23.25
2023-06-20T03:49:13.450Z,23.30
2023-06-20T03:49:56.197Z,23.30
2023-06-20T03:50:39.906Z,23.75
2023-06-20T03:51:23.453Z,24.20
2023-06-20T03:52:08.372Z,23.75
2023-06-20T03:52:51.143Z,24.40
2023-06-20T03:53:34.114Z,24.67
2023-06-20T03:54:17.785Z,23.98
2023-06-20T03:55:00.543Z,24.60
2023-06-20T03:55:44.286Z,23.55
2023-06-20T03:56:29.261Z,25.02
2023-06-20T03:57:12.994Z,24.17
2023-06-20T03:57:56.770Z,23.90
2023-06-20T03:58:41.836Z,24.70
2023-06-20T03:59:24.657Z,23.25
2023-06-20T04:00:13.004Z,23.55
2023-06-20T04:00:55.844Z,25.90
2023-06-20T04:01:39.574Z,26.50
2023-06-20T04:02:22.294Z,25.98
2023-06-20T04:03:06.143Z,24.60
2023-06-20T04:03:49.049Z,24.83
2023-06-20T04:04:32.962Z,24.05
2023-06-20T04:05:15.827Z,26.15
2023-06-20T04:06:02.377Z,24.05
2023-06-20T04:06:50.583Z,26.30
2023-06-20T04:07:33.491Z,25.45
2023-06-20T04:08:17.422Z,27.20
2023-06-20T04:09:00.436Z,24.90
2023-06-20T04:09:43.244Z,25.38
2023-06-20T04:10:27.177Z,25.35
2023-06-20T04:11:10.275Z,25.88
2023-06-20T04:11:56.732Z,22.73
2023-06-20T04:12:39.887Z,23.33
2023-06-20T04:13:22.826Z,24.52
2023-06-20T04:14:06.561Z,24.70
2023-06-20T04:14:49.348Z,23.90
2023-06-20T04:15:33.149Z,23.50
2023-06-20T04:16:16.188Z,25.35
2023-06-20T04:17:00.034Z,26.38
2023-06-20T04:17:42.897Z,23.58
2023-06-20T04:18:26.317Z,23.70
2023-06-20T04:19:10.889Z,27.10
2023-06-20T04:19:53.623Z,25.80
2023-06-20T04:20:36.352Z,25.60
2023-06-20T04:21:20.059Z,23.88
2023-06-20T04:22:09.336Z,26.23
2023-06-20T04:22:52.086Z,26.08
2023-06-20T04:23:36.193Z,26.48
2023-06-20T04:24:20.850Z,25.65
2023-06-20T04:25:04.991Z,25.20
2023-06-20T04:25:47.744Z,24.35
2023-06-20T04:26:31.610Z,23.52
2023-06-20T04:27:16.613Z,25.73
2023-06-20T04:28:00.411Z,24.38
2023-06-20T04:28:43.514Z,24.67
2023-06-20T04:29:30.321Z,25.13
2023-06-20T04:30:14.857Z,24.98
2023-06-20T04:30:57.588Z,22.30
2023-06-20T04:31:41.327Z,24.60
2023-06-20T04:32:24.167Z,25.63
2023-06-20T04:33:09.562Z,25.30
2023-06-20T04:33:52.644Z,26.30
2023-06-20T04:34:35.486Z,25.33
2023-06-20T04:35:19.339Z,25.27
2023-06-20T04:36:02.321Z,25.85
2023-06-20T04:36:45.020Z,24.27
2023-06-20T04:37:30.724Z,24.52
2023-06-20T04:38:57.558Z,22.67
2023-06-20T04:39:40.326Z,23.35
2023-06-20T04:40:24.134Z,24.67
2023-06-20T04:41:07.012Z,23.55
2023-06-20T04:41:49.718Z,23.48
2023-06-20T04:42:35.690Z,25.25
2023-06-20T04:43:19.598Z,24.27
2023-06-20T04:44:02.410Z,22.67
2023-06-20T04:44:46.179Z,22.95
2023-06-20T04:45:31.665Z,23.35
2023-06-20T04:46:17.022Z,22.52
2023-06-20T04:46:59.746Z,23.45
2023-06-20T04:47:45.540Z,24.52
2023-06-20T04:48:29.588Z,24.45
2023-06-20T04:49:13.470Z,23.95
2023-06-20T04:49:56.258Z,21.48
2023-06-20T04:50:40.013Z,22.00
2023-06-20T04:52:07.010Z,24.30
2023-06-20T04:52:51.824Z,24.90
2023-06-20T04:53:35.002Z,26.02
2023-06-20T04:54:18.725Z,24.85
2023-06-20T04:55:03.142Z,23.70
2023-06-20T04:55:46.982Z,24.45
2023-06-20T04:56:29.757Z,22.40
2023-06-20T04:57:12.535Z,22.45
2023-06-20T04:57:57.932Z,22.92
2023-06-20T04:58:40.671Z,25.17
2023-06-20T04:59:24.508Z,24.30
2023-06-20T05:00:14.004Z,22.23
2023-06-20T05:00:57.870Z,25.77
2023-06-20T05:01:40.652Z,25.00
2023-06-20T05:02:24.768Z,22.50
2023-06-20T05:03:07.850Z,24.48
2023-06-20T05:03:51.806Z,24.55
2023-06-20T05:04:34.554Z,24.50
2023-06-20T05:05:20.844Z,24.63
2023-06-20T05:06:03.721Z,24.90
2023-06-20T05:06:47.272Z,25.70
2023-06-20T05:07:31.008Z,25.48
2023-06-20T05:08:13.797Z,23.50
2023-06-20T05:08:57.611Z,24.45
2023-06-20T05:09:40.369Z,24.52
2023-06-20T05:10:23.270Z,22.05
2023-06-20T05:11:07.184Z,24.45
2023-06-20T05:11:50.079Z,23.70
2023-06-20T05:12:33.920Z,23.88
2023-06-20T05:13:18.947Z,23.70
2023-06-20T05:14:02.615Z,22.00
2023-06-20T05:14:45.437Z,23.50
2023-06-20T05:15:28.211Z,21.27
2023-06-20T05:16:12.040Z,23.15
2023-06-20T05:16:54.908Z,23.02
2023-06-20T05:17:37.691Z,23.73
2023-06-20T05:18:21.641Z,24.33
2023-06-20T05:19:04.642Z,24.17
2023-06-20T05:19:47.371Z,23.48
2023-06-20T05:20:31.402Z,23.10
2023-06-20T05:21:14.139Z,22.83
2023-06-20T05:21:57.899Z,22.58
2023-06-20T05:22:40.610Z,23.95
2023-06-20T05:23:24.803Z,23.42
2023-06-20T05:24:07.799Z,22.25
2023-06-20T05:24:51.670Z,21.08
2023-06-20T05:25:35.659Z,22.38
2023-06-20T05:26:18.459Z,21.27
2023-06-20T05:27:02.144Z,21.20
2023-06-20T05:27:44.999Z,23.58
2023-06-20T05:28:30.931Z,22.42
2023-06-20T05:29:13.667Z,22.50
2023-06-20T05:29:57.442Z,24.25
2023-06-20T05:30:40.265Z,23.13
2023-06-20T05:31:26.016Z,22.98
2023-06-20T05:32:09.010Z,21.35
2023-06-20T05:32:53.309Z,21.95
2023-06-20T05:33:36.501Z,23.30
2023-06-20T05:34:20.232Z,23.33
2023-06-20T05:35:03.172Z,24.05
2023-06-20T05:35:47.662Z,22.17
2023-06-20T05:36:31.125Z,21.90
2023-06-20T05:37:15.126Z,22.05
2023-06-20T05:37:57.951Z,23.67
2023-06-20T05:38:41.861Z,23.15
2023-06-20T05:39:24.887Z,21.65
2023-06-20T05:40:10.774Z,21.65
2023-06-20T05:40:55.773Z,23.45
2023-06-20T05:41:39.515Z,23.13
2023-06-20T05:42:22.262Z,22.73
2023-06-20T05:43:06.089Z,21.58
2023-06-20T05:43:51.108Z,22.55
2023-06-20T05:44:35.052Z,21.85
2023-06-20T05:45:17.873Z,23.15
2023-06-20T05:46:01.685Z,24.05
2023-06-20T05:46:44.478Z,23.02
2023-06-20T05:47:29.440Z,23.05
2023-06-20T05:48:12.246Z,21.45
2023-06-20T05:49:01.638Z,22.38
2023-06-20T05:49:44.555Z,22.50
2023-06-20T05:50:28.636Z,22.75
2023-06-20T05:51:14.740Z,23.20
2023-06-20T05:51:58.849Z,21.83
2023-06-20T05:52:42.844Z,22.88
2023-06-20T05:53:27.251Z,21.98
2023-06-20T05:54:10.307Z,23.15
2023-06-20T05:54:55.064Z,22.90
2023-06-20T05:55:37.786Z,23.10
2023-06-20T05:56:21.936Z,20.83
2023-06-20T05:57:06.939Z,21.98
2023-06-20T05:57:50.656Z,23.10
2023-06-20T05:58:33.391Z,23.17
2023-06-20T05:59:19.038Z,23.48
2023-06-20T06:00:01.876Z,23.80
2023-06-20T06:00:46.749Z,22.23
2023-06-20T06:01:29.776Z,21.98
2023-06-20T06:02:13.486Z,23.00
2023-06-20T06:02:56.745Z,21.55
2023-06-20T06:03:40.811Z,21.30
2023-06-20T06:04:23.820Z,21.65
2023-06-20T06:05:08.714Z,23.10
2023-06-20T06:05:51.573Z,22.25
2023-06-20T06:06:35.618Z,20.50
2023-06-20T06:07:18.428Z,22.35
2023-06-20T06:08:02.210Z,21.15
2023-06-20T06:08:44.962Z,23.00
2023-06-20T06:09:28.924Z,22.35
2023-06-20T06:10:11.933Z,22.27
2023-06-20T06:10:55.667Z,20.80
2023-06-20T06:11:38.427Z,23.52
2023-06-20T06:12:22.585Z,24.83
2023-06-20T06:13:07.809Z,22.88
2023-06-20T06:13:52.449Z,22.33
2023-06-20T06:14:37.430Z,23.88
2023-06-20T06:15:21.125Z,22.35
2023-06-20T06:16:04.075Z,23.67
2023-06-20T06:16:46.983Z,23.42
2023-06-20T06:17:31.761Z,21.58
2023-06-20T06:18:16.511Z,23.23
2023-06-20T06:19:00.845Z,22.77
2023-06-20T06:19:43.989Z,21.48
2023-06-20T06:20:30.520Z,22.58
2023-06-20T06:21:13.452Z,22.80
2023-06-20T06:21:59.109Z,22.40
2023-06-20T06:22:43.402Z,24.38
2023-06-20T06:23:27.422Z,23.10
2023-06-20T06:24:10.570Z,23.80
2023-06-20T06:24:54.454Z,22.50
2023-06-20T06:25:37.229Z,24.30
2023-06-20T06:26:20.955Z,22.08
2023-06-20T06:27:05.198Z,21.98
2023-06-20T06:27:49.048Z,21.52
2023-06-20T06:28:31.946Z,23.30
2023-06-20T06:29:16.336Z,21.40
2023-06-20T06:30:01.493Z,24.25
2023-06-20T06:30:45.445Z,22.27
2023-06-20T06:31:31.337Z,23.33
2023-06-20T06:32:16.193Z,22.52
2023-06-20T06:32:59.588Z,22.17
2023-06-20T06:33:43.963Z,21.75
2023-06-20T06:34:27.281Z,21.75
2023-06-20T06:35:12.303Z,21.23
2023-06-20T06:35:56.318Z,21.98
2023-06-20T06:36:39.138Z,21.90
2023-06-20T06:37:26.262Z,23.38
2023-06-20T06:38:09.373Z,21.73
2023-06-20T06:38:54.032Z,22.48
2023-06-20T06:39:37.778Z,22.67
2023-06-20T06:40:23.005Z,20.95
2023-06-20T06:41:07.661Z,20.83
2023-06-20T06:41:51.936Z,22.33
2023-06-20T06:42:34.765Z,23.35
2023-06-20T06:43:17.577Z,20.92
2023-06-20T06:44:01.821Z,23.08
2023-06-20T06:44:45.976Z,22.92
2023-06-20T06:45:31.911Z,22.60
2023-06-20T06:46:14.733Z,23.55
2023-06-20T06:46:57.495Z,21.67
2023-06-20T06:47:41.312Z,21.52
2023-06-20T06:48:24.041Z,23.00
2023-06-20T06:49:07.785Z,22.15
2023-06-20T06:49:50.593Z,20.98
2023-06-20T06:50:35.116Z,23.30
2023-06-20T06:51:17.943Z,22.00
2023-06-20T06:52:02.906Z,22.90
2023-06-20T06:52:45.668Z,20.73
2023-06-20T06:53:29.430Z,23.90
2023-06-20T06:54:12.246Z,22.65
2023-06-20T06:54:57.031Z,23.13
2023-06-20T06:55:41.027Z,23.40
2023-06-20T06:56:24.818Z,23.15
2023-06-20T06:57:08.004Z,20.65
2023-06-20T06:57:51.672Z,23.65
2023-06-20T06:58:34.501Z,22.40
2023-06-20T06:59:18.217Z,22.20
2023-06-20T07:00:01.001Z,23.95
2023-06-20T07:00:47.135Z,25.15
2023-06-20T07:01:30.390Z,22.88
2023-06-20T07:02:15.073Z,21.23
2023-06-20T07:02:58.086Z,23.52
2023-06-20T07:03:41.906Z,23.45
2023-06-20T07:04:24.718Z,23.77
2023-06-20T07:05:08.469Z,23.30
2023-06-20T07:05:52.350Z,25.10
2023-06-20T07:06:35.191Z,22.60
2023-06-20T07:07:18.964Z,22.98
2023-06-20T07:08:01.711Z,24.05
2023-06-20T07:08:45.359Z,24.55
2023-06-20T07:09:28.094Z,25.50
2023-06-20T07:10:12.253Z,24.83
2023-06-20T07:10:54.986Z,23.38
2023-06-20T07:11:38.826Z,25.00
2023-06-20T07:12:21.561Z,25.10
2023-06-20T07:13:07.253Z,24.50
2023-06-20T07:13:50.171Z,24.77
2023-06-20T07:14:34.819Z,25.23
2023-06-20T07:15:17.820Z,25.90
2023-06-20T07:16:03.787Z,26.67
2023-06-20T07:17:03.746Z,23.80
2023-06-20T07:17:48.760Z,23.08
2023-06-20T07:18:31.559Z,26.38
2023-06-20T07:19:15.268Z,24.35
2023-06-20T07:19:58.336Z,24.70
2023-06-20T07:20:42.117Z,26.13
2023-06-20T07:21:26.200Z,25.45
2023-06-20T07:22:10.108Z,25.98
2023-06-20T07:22:52.950Z,24.77
2023-06-20T07:23:36.639Z,26.27
2023-06-20T07:24:19.443Z,23.67
2023-06-20T07:25:03.297Z,25.80
2023-06-20T07:25:45.999Z,25.33
2023-06-20T07:26:30.145Z,23.92
2023-06-20T07:27:12.881Z,23.73
2023-06-20T07:27:56.615Z,24.73
2023-06-20T07:28:40.929Z,25.23
2023-06-20T07:29:24.653Z,25.70
2023-06-20T07:30:08.893Z,25.23
2023-06-20T07:30:51.726Z,27.17
2023-06-20T07:31:37.640Z,25.98
2023-06-20T07:32:20.506Z,25.77
2023-06-20T07:33:04.520Z,25.15
2023-06-20T07:33:48.162Z,23.73
2023-06-20T07:34:32.064Z,23.52
2023-06-20T07:35:14.858Z,23.75
2023-06-20T07:35:59.685Z,25.70
2023-06-20T07:36:43.166Z,25.55
2023-06-20T07:37:27.095Z,24.42
2023-06-20T07:38:09.923Z,24.75
2023-06-20T07:38:53.626Z,24.35
2023-06-20T07:39:39.307Z,25.25
2023-06-20T07:41:05.817Z,22.92
2023-06-20T07:41:49.524Z,27.40
2023-06-20T07:42:32.315Z,24.98
2023-06-20T07:43:16.195Z,26.05
2023-06-20T07:43:58.924Z,24.80
2023-06-20T07:44:42.613Z,26.50
2023-06-20T07:45:25.626Z,26.08
2023-06-20T07:46:09.570Z,25.60
2023-06-20T07:46:54.546Z,26.05
2023-06-20T07:47:38.299Z,25.95
2023-06-20T07:48:23.881Z,25.63
2023-06-20T07:49:07.770Z,27.67
2023-06-20T07:49:50.515Z,27.95
2023-06-20T07:50:34.346Z,26.73
2023-06-20T07:51:17.028Z,25.02
2023-06-20T07:52:01.675Z,26.05
2023-06-20T07:52:44.674Z,24.58
2023-06-20T07:53:28.438Z,25.48
2023-06-20T07:54:11.276Z,24.90
2023-06-20T07:54:56.999Z,24.70
2023-06-20T07:55:42.641Z,26.10
2023-06-20T07:56:28.172Z,26.77
2023-06-20T07:57:11.762Z,25.20
2023-06-20T07:57:55.122Z,24.05
2023-06-20T07:58:39.436Z,26.25
2023-06-20T07:59:22.242Z,24.73
2023-06-20T08:00:10.283Z,24.25
2023-06-20T08:00:53.500Z,25.67
2023-06-20T08:01:37.334Z,26.00
2023-06-20T08:02:23.041Z,23.63
2023-06-20T08:03:06.933Z,25.10
2023-06-20T08:03:49.855Z,26.58
2023-06-20T08:04:33.688Z,25.58
2023-06-20T08:05:16.579Z,25.35
2023-06-20T08:06:00.456Z,27.02
2023-06-20T08:06:43.259Z,24.75
2023-06-20T08:07:26.994Z,25.27
2023-06-20T08:08:09.669Z,26.67
2023-06-20T08:08:53.382Z,25.33
2023-06-20T08:09:36.095Z,27.05
2023-06-20T08:10:19.988Z,26.35
2023-06-20T08:11:03.329Z,25.13
2023-06-20T08:11:47.025Z,25.50
2023-06-20T08:12:29.938Z,25.90
2023-06-20T08:13:13.693Z,27.00
2023-06-20T08:13:56.470Z,25.63
2023-06-20T08:14:39.382Z,27.98
2023-06-20T08:15:23.444Z,26.85
2023-06-20T08:16:08.242Z,27.23
2023-06-20T08:16:54.032Z,26.05
2023-06-20T08:17:39.398Z,25.35
2023-06-20T08:18:23.248Z,27.30
2023-06-20T08:19:06.099Z,26.50
2023-06-20T08:19:49.837Z,24.10
2023-06-20T08:20:32.657Z,24.77
2023-06-20T08:21:16.399Z,25.63
2023-06-20T08:21:59.145Z,25.23
2023-06-20T08:22:42.913Z,26.00
2023-06-20T08:23:26.595Z,27.10
2023-06-20T08:24:10.863Z,25.30
2023-06-20T08:24:53.718Z,28.17
2023-06-20T08:25:37.474Z,26.02
2023-06-20T08:26:20.297Z,25.77
2023-06-20T08:27:04.937Z,26.45
2023-06-20T08:27:48.568Z,25.48
2023-06-20T08:28:34.988Z,25.00
2023-06-20T08:29:17.728Z,25.80
2023-06-20T08:30:01.524Z,25.08
2023-06-20T08:30:44.295Z,24.40
2023-06-20T08:31:37.570Z,25.00
2023-06-20T08:32:20.471Z,25.52
2023-06-20T08:33:06.543Z,24.15
2023-06-20T08:33:49.405Z,27.77
2023-06-20T08:34:33.256Z,26.27
2023-06-20T08:35:16.392Z,26.45
2023-06-20T08:36:00.621Z,24.63
2023-06-20T08:36:44.626Z,26.15
2023-06-20T08:37:28.345Z,26.77
2023-06-20T08:38:11.541Z,25.83
2023-06-20T08:38:55.253Z,26.65
2023-06-20T08:39:38.035Z,24.92
2023-06-20T08:40:21.976Z,25.58
2023-06-20T08:41:05.369Z,25.38
2023-06-20T08:41:51.571Z,26.10
2023-06-20T08:42:34.489Z,24.10
2023-06-20T08:43:18.934Z,25.95
2023-06-20T08:44:01.852Z,26.35
2023-06-20T08:44:55.986Z,26.05
2023-06-20T08:45:40.296Z,27.90
2023-06-20T08:46:25.510Z,27.50
2023-06-20T08:47:08.842Z,26.85
2023-06-20T08:47:52.681Z,28.35
2023-06-20T08:48:38.055Z,24.85
2023-06-20T08:49:22.803Z,25.10
2023-06-20T08:50:07.018Z,25.00
2023-06-20T08:50:52.256Z,26.85
2023-06-20T08:51:38.995Z,26.10
2023-06-20T08:52:30.370Z,25.13
2023-06-20T08:53:13.517Z,26.35
2023-06-20T08:53:58.752Z,27.70
2023-06-20T08:54:44.771Z,25.58
2023-06-20T08:55:30.370Z,25.38
2023-06-20T08:56:13.838Z,26.15
2023-06-20T08:56:57.593Z,26.65
2023-06-20T08:57:40.338Z,26.40
2023-06-20T08:58:24.256Z,26.02
2023-06-20T08:59:07.048Z,24.38
2023-06-20T08:59:51.402Z,25.20
2023-06-20T09:00:34.516Z,24.80
2023-06-20T09:01:18.348Z,25.27
2023-06-20T09:02:01.121Z,25.60
2023-06-20T09:02:44.951Z,24.77
2023-06-20T09:03:27.798Z,25.92
2023-06-20T09:04:13.561Z,26.08
2023-06-20T09:05:03.988Z,23.40
2023-06-20T09:05:47.902Z,24.85
2023-06-20T09:06:38.323Z,23.70
2023-06-20T09:07:22.716Z,25.17
2023-06-20T09:08:08.657Z,24.42
2023-06-20T09:08:53.706Z,23.73
2023-06-20T09:09:40.612Z,25.55
2023-06-20T09:10:26.126Z,25.55
2023-06-20T09:11:10.654Z,24.25
2023-06-20T09:12:00.012Z,24.55
2023-06-20T09:12:50.633Z,24.17
2023-06-20T09:13:34.494Z,27.00
2023-06-20T09:14:17.268Z,25.65
2023-06-20T09:15:01.198Z,25.38
2023-06-20T09:15:43.980Z,24.63
2023-06-20T09:16:29.266Z,26.73
2023-06-20T09:17:12.247Z,26.40
2023-06-20T09:17:58.290Z,25.83
2023-06-20T09:18:42.013Z,26.65
2023-06-20T09:19:27.354Z,26.75
2023-06-20T09:20:12.756Z,25.88
2023-06-20T09:21:01.189Z,25.17
2023-06-20T09:21:43.925Z,23.48
2023-06-20T09:22:27.768Z,24.67
2023-06-20T09:23:10.537Z,21.95
2023-06-20T09:24:04.514Z,23.58
2023-06-20T09:24:47.784Z,23.77
2023-06-20T09:25:32.231Z,22.20
2023-06-20T09:26:16.664Z,21.50
2023-06-20T09:27:05.566Z,22.65
2023-06-20T09:27:48.551Z,22.58
2023-06-20T09:28:35.522Z,24.77
2023-06-20T09:29:19.545Z,22.67
2023-06-20T09:30:05.038Z,22.80
2023-06-20T09:30:49.938Z,23.80
2023-06-20T09:31:43.217Z,22.75
2023-06-20T09:32:26.028Z,22.88
2023-06-20T09:33:16.034Z,24.88
2023-06-20T09:33:58.758Z,24.10
2023-06-20T09:34:43.912Z,23.17
2023-06-20T09:35:26.743Z,23.25
2023-06-20T09:36:15.791Z,24.15
2023-06-20T09:37:01.663Z,23.35
2023-06-20T09:37:48.103Z,23.27
2023-06-20T09:38:31.825Z,24.10
2023-06-20T09:39:18.666Z,26.08
2023-06-20T09:40:09.535Z,24.23
2023-06-20T09:40:55.672Z,23.88
2023-06-20T09:41:46.564Z,23.77
2023-06-20T09:42:30.689Z,24.77
2023-06-20T09:43:13.487Z,22.25